Forside
METAR-TAF:

METAR-TAF

Lufthavne :

Asahikawa Air Base, Japan

Breddekreds: 43-48N, længdekreds: 142-22E, højde: 115 m

Aktuelle vejr

Denne rapport blev lavet for 2 timer og 46 minutter siden, kl. 00:15 UTC
Vind 2 kt fra varierende retninger
Temperatur 15°C
Fugtighed 88%
Tryk 1003 hPa
Sigt 10 km eller mere
Nogle få skyer i en højde af 800 ft
Spredte skyer i en højde af 1500 ft
Brudte skyer i en højde af 3500 ft
let regnbyger

METAR: RJCA 250015Z VRB02KT 9999 -SHRA FEW008 SCT015 BKN035 15/13 Q1003 RMK 1ST008 3ST015 6CU035 A2963

Tid: 12:01 (03:01 UTC)


TAF: fraværende

Vejrobservationer og prognoser fra mere end 4000 lufthavne (METAR og TAF).

De gule og røde prikker repræsenterer de meteorologiske stationer.

Flyt musen over at se navnet på stationen.

Så klik over at se vejr observationer og prognoser.

At skifte det kort: Klik på de grønne knapper med et sort kors for at zoome ind; på den grønne knap med en bindestreg for at zoome ud; eller på de grønne pile for tilstødende kort.


METAR-TAF: